KAUO/AUO METAR and TAF weather

Enter ICAO airport designator
Station Type Date Time Source
KAUO METAR 2022/09/26 07:56 UTC NOAA

KAUO 260756Z AUTO 33005KT 10SM CLR 19/18 A2994 RMK AO2 SLP148 T01940183


Station Type Date Time Source
KAUO Decoded METAR 2022/09/26 07:56 UTC NOAA

Auburn-Opelika Airport, AL, United States (KAUO) 32-37N 085-26W
Sep 26, 2022 - 03:56 AM EDT / 2022.09.26 0756 UTC
Wind: from the NNW (330 degrees) at 6 MPH (5 KT):0
Visibility: 10 mile(s):0
Sky conditions: clear
Temperature: 66.9 F (19.4 C)
Dew Point: 64.9 F (18.3 C)
Relative Humidity: 93%
Pressure (altimeter): 29.94 in. Hg (1013 hPa)
ob: KAUO 260756Z AUTO 33005KT 10SM CLR 19/18 A2994 RMK AO2 SLP148 T01940183
cycle: 8

Station Type Date Time Source
KAUO TAF UTC NOAA

Error!

Example: see airport list